createdAt,value
2022-08-21T05:29:34.309Z,49.40
2022-08-21T05:34:08.402Z,49.70
2022-08-21T06:04:25.568Z,47.00
2022-08-21T06:07:09.863Z,47.20
2022-08-21T06:09:48.221Z,46.20
2022-08-21T06:13:08.115Z,46.30
2022-08-21T06:15:55.152Z,45.80
2022-08-21T06:19:11.077Z,44.50
2022-08-21T06:21:53.923Z,42.60
2022-08-21T06:25:02.406Z,42.70
2022-08-21T08:04:07.237Z,29.80
2022-08-21T08:25:13.550Z,28.10
2022-08-21T08:32:44.581Z,28.10
2022-08-21T08:36:12.648Z,28.30
2022-08-21T08:40:00.139Z,27.50
2022-08-21T08:43:01.922Z,27.20
2022-08-21T08:46:57.541Z,25.20
2022-08-21T09:44:31.568Z,22.50
2022-08-21T09:47:01.173Z,21.90
2022-08-21T09:49:31.424Z,21.00
2022-08-21T09:52:01.471Z,21.30
2022-08-21T09:54:35.410Z,21.00
2022-08-21T09:57:34.060Z,21.60
2022-08-21T10:00:17.288Z,22.40
2022-08-21T10:02:45.604Z,21.00
2022-08-21T10:05:20.268Z,21.30
2022-08-21T10:07:48.733Z,19.60
2022-08-21T10:10:20.650Z,19.70
2022-08-21T10:12:56.872Z,18.80
2022-08-21T10:15:37.416Z,20.70
2022-08-21T10:18:15.594Z,20.20
2022-08-21T10:20:48.475Z,20.00
2022-08-21T10:23:36.029Z,18.50
2022-08-21T10:26:14.232Z,20.10
2022-08-21T10:28:55.076Z,21.90
2022-08-21T10:31:47.637Z,19.80
2022-08-21T10:34:35.085Z,18.80
2022-08-21T10:37:16.385Z,20.40
2022-08-21T10:39:54.509Z,17.40
2022-08-21T10:42:38.204Z,19.40
2022-08-21T10:45:17.762Z,18.60
2022-08-21T10:47:58.176Z,19.80
2022-08-21T10:58:27.218Z,19.00
2022-08-21T11:06:11.137Z,20.00
2022-08-21T11:10:04.172Z,20.00
2022-08-21T11:18:18.199Z,18.90
2022-08-21T11:21:59.375Z,19.10
2022-08-21T11:47:04.585Z,16.70
2022-08-21T11:55:03.431Z,17.20
2022-08-21T13:13:32.280Z,13.80
2022-08-21T13:17:28.439Z,14.20
2022-08-21T13:22:38.424Z,12.60
2022-08-21T13:28:06.776Z,14.50
2022-08-21T13:30:41.113Z,12.90
2022-08-21T13:35:35.481Z,12.50
2022-08-21T13:44:19.904Z,10.70
2022-08-21T13:57:03.806Z,11.20
2022-08-21T14:01:32.591Z,10.40
2022-08-21T14:05:57.737Z,10.50
2022-08-21T14:09:13.860Z,10.60
2022-08-21T14:11:45.828Z,10.50
2022-08-21T14:14:44.148Z,8.70
2022-08-21T14:17:33.489Z,9.90
2022-08-21T14:39:22.322Z,10.10
2022-08-21T14:42:14.647Z,10.40
2022-08-21T14:45:16.769Z,10.10
2022-08-21T14:48:18.150Z,15.00
2022-08-21T14:51:00.381Z,10.60
2022-08-21T14:53:40.020Z,11.10
2022-08-21T14:56:30.627Z,11.60
2022-08-21T14:59:33.818Z,10.30
2022-08-21T15:02:09.132Z,10.20
2022-08-21T15:04:44.149Z,9.50
2022-08-21T15:07:24.012Z,9.60
2022-08-21T15:09:53.299Z,11.30
2022-08-21T15:12:40.644Z,10.00
2022-08-21T17:47:47.227Z,13.10
2022-08-21T18:03:20.739Z,15.10
2022-08-21T18:06:38.693Z,15.70
2022-08-21T18:10:06.242Z,16.60
2022-08-21T18:13:36.634Z,17.40
2022-08-21T18:17:24.869Z,17.40
2022-08-21T18:21:24.413Z,18.70
2022-08-21T18:24:53.652Z,18.60
2022-08-21T18:28:20.206Z,19.00
2022-08-21T18:31:59.992Z,19.60
2022-08-21T18:35:12.831Z,19.80
2022-08-21T18:38:42.123Z,21.00
2022-08-21T18:42:07.835Z,21.10
2022-08-21T18:45:24.237Z,21.00
2022-08-21T18:51:35.874Z,21.90
2022-08-21T18:55:28.935Z,21.50
2022-08-21T18:58:24.986Z,21.50
2022-08-21T19:01:54.875Z,21.90
2022-08-21T19:17:29.404Z,23.20
2022-08-21T19:55:29.777Z,25.80
2022-08-21T20:07:28.100Z,26.30
2022-08-21T20:11:27.725Z,26.50
2022-08-21T20:49:31.674Z,29.00
2022-08-21T20:52:44.034Z,28.30
2022-08-21T21:00:59.390Z,28.20
2022-08-21T21:22:21.288Z,30.70
2022-08-21T21:25:41.542Z,29.40
